sensor_id;sensor_type;location;lat;lon;timestamp;P1;durP1;ratioP1;P2;durP2;ratioP2
2452;SDS011;1238;47.994;7.854;2022-07-29T00:00:14;4.72;;;3.67;;
2452;SDS011;1238;47.994;7.854;2022-07-29T00:05:19;6.78;;;3.10;;
2452;SDS011;1238;47.994;7.854;2022-07-29T00:07:52;4.55;;;3.63;;
2452;SDS011;1238;47.994;7.854;2022-07-29T00:12:56;4.78;;;3.47;;
2452;SDS011;1238;47.994;7.854;2022-07-29T00:18:01;4.85;;;3.50;;
2452;SDS011;1238;47.994;7.854;2022-07-29T00:20:33;5.85;;;3.42;;
2452;SDS011;1238;47.994;7.854;2022-07-29T00:23:05;4.07;;;3.38;;
2452;SDS011;1238;47.994;7.854;2022-07-29T00:25:43;4.75;;;3.78;;
2452;SDS011;1238;47.994;7.854;2022-07-29T00:30:48;5.80;;;3.67;;
2452;SDS011;1238;47.994;7.854;2022-07-29T00:33:20;5.38;;;3.83;;
2452;SDS011;1238;47.994;7.854;2022-07-29T00:35:54;4.25;;;3.22;;
2452;SDS011;1238;47.994;7.854;2022-07-29T00:38:27;6.35;;;3.95;;
2452;SDS011;1238;47.994;7.854;2022-07-29T00:43:32;4.93;;;3.53;;
2452;SDS011;1238;47.994;7.854;2022-07-29T00:46:04;4.43;;;3.50;;
2452;SDS011;1238;47.994;7.854;2022-07-29T00:48:36;5.53;;;3.58;;
2452;SDS011;1238;47.994;7.854;2022-07-29T00:51:09;5.95;;;3.83;;
2452;SDS011;1238;47.994;7.854;2022-07-29T00:53:42;6.03;;;3.75;;
2452;SDS011;1238;47.994;7.854;2022-07-29T00:56:15;5.60;;;3.78;;
2452;SDS011;1238;47.994;7.854;2022-07-29T01:01:22;6.05;;;4.10;;
2452;SDS011;1238;47.994;7.854;2022-07-29T01:03:54;6.00;;;4.03;;
2452;SDS011;1238;47.994;7.854;2022-07-29T01:06:27;4.55;;;3.75;;
2452;SDS011;1238;47.994;7.854;2022-07-29T01:08:59;4.47;;;3.15;;
2452;SDS011;1238;47.994;7.854;2022-07-29T01:11:32;5.25;;;3.97;;
2452;SDS011;1238;47.994;7.854;2022-07-29T01:14:09;7.20;;;4.03;;
2452;SDS011;1238;47.994;7.854;2022-07-29T01:16:45;5.70;;;4.22;;
2452;SDS011;1238;47.994;7.854;2022-07-29T01:25:10;4.78;;;3.75;;
2452;SDS011;1238;47.994;7.854;2022-07-29T01:28:07;5.03;;;3.50;;
2452;SDS011;1238;47.994;7.854;2022-07-29T01:31:02;6.30;;;4.18;;
2452;SDS011;1238;47.994;7.854;2022-07-29T01:33:38;5.38;;;4.32;;
2452;SDS011;1238;47.994;7.854;2022-07-29T01:36:37;12.80;;;4.88;;
2452;SDS011;1238;47.994;7.854;2022-07-29T01:39:19;5.95;;;3.90;;
2452;SDS011;1238;47.994;7.854;2022-07-29T01:47:40;5.07;;;4.30;;
2452;SDS011;1238;47.994;7.854;2022-07-29T01:50:18;6.40;;;4.45;;
2452;SDS011;1238;47.994;7.854;2022-07-29T01:52:58;5.72;;;4.57;;
2452;SDS011;1238;47.994;7.854;2022-07-29T01:55:38;8.20;;;4.50;;
2452;SDS011;1238;47.994;7.854;2022-07-29T01:58:14;6.35;;;4.43;;
2452;SDS011;1238;47.994;7.854;2022-07-29T02:00:50;5.43;;;3.78;;
2452;SDS011;1238;47.994;7.854;2022-07-29T02:03:23;6.35;;;3.85;;
2452;SDS011;1238;47.994;7.854;2022-07-29T02:05:57;5.90;;;3.75;;
2452;SDS011;1238;47.994;7.854;2022-07-29T02:08:31;4.60;;;3.70;;
2452;SDS011;1238;47.994;7.854;2022-07-29T02:11:05;4.93;;;3.80;;
2452;SDS011;1238;47.994;7.854;2022-07-29T02:13:38;6.60;;;3.58;;
2452;SDS011;1238;47.994;7.854;2022-07-29T02:16:12;6.07;;;3.90;;
2452;SDS011;1238;47.994;7.854;2022-07-29T02:18:47;4.65;;;3.70;;
2452;SDS011;1238;47.994;7.854;2022-07-29T02:21:24;6.72;;;4.10;;
2452;SDS011;1238;47.994;7.854;2022-07-29T02:23:59;6.20;;;3.97;;
2452;SDS011;1238;47.994;7.854;2022-07-29T02:26:33;6.28;;;3.92;;
2452;SDS011;1238;47.994;7.854;2022-07-29T02:29:05;5.80;;;3.75;;
2452;SDS011;1238;47.994;7.854;2022-07-29T02:31:40;4.97;;;3.47;;
2452;SDS011;1238;47.994;7.854;2022-07-29T02:34:15;6.47;;;3.70;;
2452;SDS011;1238;47.994;7.854;2022-07-29T02:36:50;7.72;;;4.28;;
2452;SDS011;1238;47.994;7.854;2022-07-29T02:39:24;6.63;;;3.83;;
2452;SDS011;1238;47.994;7.854;2022-07-29T02:42:00;5.03;;;3.95;;
2452;SDS011;1238;47.994;7.854;2022-07-29T02:44:35;8.18;;;4.38;;
2452;SDS011;1238;47.994;7.854;2022-07-29T02:47:24;7.88;;;3.80;;
2452;SDS011;1238;47.994;7.854;2022-07-29T02:50:14;4.70;;;3.60;;
2452;SDS011;1238;47.994;7.854;2022-07-29T02:52:59;9.65;;;3.70;;
2452;SDS011;1238;47.994;7.854;2022-07-29T02:58:27;7.20;;;3.70;;
2452;SDS011;1238;47.994;7.854;2022-07-29T03:01:11;6.45;;;4.03;;
2452;SDS011;1238;47.994;7.854;2022-07-29T03:03:53;5.57;;;3.72;;
2452;SDS011;1238;47.994;7.854;2022-07-29T03:06:25;6.18;;;4.20;;
2452;SDS011;1238;47.994;7.854;2022-07-29T03:09:10;9.35;;;3.90;;
2452;SDS011;1238;47.994;7.854;2022-07-29T03:11:44;7.82;;;4.07;;
2452;SDS011;1238;47.994;7.854;2022-07-29T03:14:21;6.85;;;4.00;;
2452;SDS011;1238;47.994;7.854;2022-07-29T03:16:54;5.45;;;4.20;;
2452;SDS011;1238;47.994;7.854;2022-07-29T03:19:27;5.90;;;4.40;;
2452;SDS011;1238;47.994;7.854;2022-07-29T03:22:00;4.82;;;3.90;;
2452;SDS011;1238;47.994;7.854;2022-07-29T03:24:34;6.05;;;4.00;;
2452;SDS011;1238;47.994;7.854;2022-07-29T03:27:08;7.60;;;3.85;;
2452;SDS011;1238;47.994;7.854;2022-07-29T03:29:40;5.18;;;4.20;;
2452;SDS011;1238;47.994;7.854;2022-07-29T03:32:20;6.97;;;3.75;;
2452;SDS011;1238;47.994;7.854;2022-07-29T03:34:55;5.97;;;4.13;;
2452;SDS011;1238;47.994;7.854;2022-07-29T03:37:27;4.95;;;4.00;;
2452;SDS011;1238;47.994;7.854;2022-07-29T03:40:03;5.95;;;3.78;;
2452;SDS011;1238;47.994;7.854;2022-07-29T03:42:39;7.15;;;4.00;;
2452;SDS011;1238;47.994;7.854;2022-07-29T03:45:15;5.03;;;3.78;;
2452;SDS011;1238;47.994;7.854;2022-07-29T03:47:51;6.35;;;4.05;;
2452;SDS011;1238;47.994;7.854;2022-07-29T03:50:31;5.25;;;3.53;;
2452;SDS011;1238;47.994;7.854;2022-07-29T03:53:05;5.45;;;4.20;;
2452;SDS011;1238;47.994;7.854;2022-07-29T03:55:41;6.65;;;3.60;;
2452;SDS011;1238;47.994;7.854;2022-07-29T03:58:16;8.77;;;4.45;;
2452;SDS011;1238;47.994;7.854;2022-07-29T04:00:50;5.50;;;3.60;;
2452;SDS011;1238;47.994;7.854;2022-07-29T04:03:23;5.43;;;3.85;;
2452;SDS011;1238;47.994;7.854;2022-07-29T04:08:39;5.85;;;4.03;;
2452;SDS011;1238;47.994;7.854;2022-07-29T04:11:11;5.47;;;4.10;;
2452;SDS011;1238;47.994;7.854;2022-07-29T04:13:44;8.15;;;4.00;;
2452;SDS011;1238;47.994;7.854;2022-07-29T04:16:16;7.72;;;4.25;;
2452;SDS011;1238;47.994;7.854;2022-07-29T04:21:20;8.00;;;3.85;;
2452;SDS011;1238;47.994;7.854;2022-07-29T04:23:53;6.80;;;3.97;;
2452;SDS011;1238;47.994;7.854;2022-07-29T04:26:25;6.85;;;4.10;;
2452;SDS011;1238;47.994;7.854;2022-07-29T04:28:57;7.75;;;3.78;;
2452;SDS011;1238;47.994;7.854;2022-07-29T04:31:29;6.82;;;4.25;;
2452;SDS011;1238;47.994;7.854;2022-07-29T04:34:02;5.22;;;3.60;;
2452;SDS011;1238;47.994;7.854;2022-07-29T04:36:34;6.15;;;3.72;;
2452;SDS011;1238;47.994;7.854;2022-07-29T04:39:06;5.47;;;3.92;;
2452;SDS011;1238;47.994;7.854;2022-07-29T04:41:38;5.40;;;3.40;;
2452;SDS011;1238;47.994;7.854;2022-07-29T04:44:10;6.18;;;3.40;;
2452;SDS011;1238;47.994;7.854;2022-07-29T04:46:44;8.88;;;3.80;;
2452;SDS011;1238;47.994;7.854;2022-07-29T04:51:49;4.80;;;3.55;;
2452;SDS011;1238;47.994;7.854;2022-07-29T04:56:56;4.78;;;3.28;;
2452;SDS011;1238;47.994;7.854;2022-07-29T04:59:28;6.53;;;3.45;;
2452;SDS011;1238;47.994;7.854;2022-07-29T05:02:00;5.20;;;3.15;;
2452;SDS011;1238;47.994;7.854;2022-07-29T05:04:33;6.80;;;3.42;;
2452;SDS011;1238;47.994;7.854;2022-07-29T05:07:05;6.35;;;3.40;;
2452;SDS011;1238;47.994;7.854;2022-07-29T05:09:37;6.80;;;3.80;;
2452;SDS011;1238;47.994;7.854;2022-07-29T05:12:09;5.88;;;3.40;;
2452;SDS011;1238;47.994;7.854;2022-07-29T05:14:42;6.97;;;3.40;;
2452;SDS011;1238;47.994;7.854;2022-07-29T05:17:14;5.88;;;3.72;;
2452;SDS011;1238;47.994;7.854;2022-07-29T05:22:19;4.75;;;3.60;;
2452;SDS011;1238;47.994;7.854;2022-07-29T05:24:52;6.50;;;3.60;;
2452;SDS011;1238;47.994;7.854;2022-07-29T05:27:24;4.45;;;3.30;;
2452;SDS011;1238;47.994;7.854;2022-07-29T05:29:57;6.07;;;3.97;;
2452;SDS011;1238;47.994;7.854;2022-07-29T05:32:29;6.78;;;4.25;;
2452;SDS011;1238;47.994;7.854;2022-07-29T05:37:34;5.55;;;3.67;;
2452;SDS011;1238;47.994;7.854;2022-07-29T05:42:40;5.50;;;4.13;;
2452;SDS011;1238;47.994;7.854;2022-07-29T05:45:12;5.53;;;3.85;;
2452;SDS011;1238;47.994;7.854;2022-07-29T05:47:45;5.10;;;3.65;;
2452;SDS011;1238;47.994;7.854;2022-07-29T05:50:17;10.80;;;3.90;;
2452;SDS011;1238;47.994;7.854;2022-07-29T05:52:50;6.70;;;4.13;;
2452;SDS011;1238;47.994;7.854;2022-07-29T05:57:54;6.05;;;3.63;;
2452;SDS011;1238;47.994;7.854;2022-07-29T06:00:26;6.88;;;3.83;;
2452;SDS011;1238;47.994;7.854;2022-07-29T06:03:00;6.25;;;3.72;;
2452;SDS011;1238;47.994;7.854;2022-07-29T06:05:32;4.68;;;3.50;;
2452;SDS011;1238;47.994;7.854;2022-07-29T06:08:05;8.15;;;4.18;;
2452;SDS011;1238;47.994;7.854;2022-07-29T06:10:38;10.70;;;4.00;;
2452;SDS011;1238;47.994;7.854;2022-07-29T06:13:10;8.13;;;4.18;;
2452;SDS011;1238;47.994;7.854;2022-07-29T06:15:43;6.95;;;4.60;;
2452;SDS011;1238;47.994;7.854;2022-07-29T06:18:15;9.13;;;4.72;;
2452;SDS011;1238;47.994;7.854;2022-07-29T06:20:48;5.45;;;3.90;;
2452;SDS011;1238;47.994;7.854;2022-07-29T06:23:20;6.10;;;3.97;;
2452;SDS011;1238;47.994;7.854;2022-07-29T06:25:52;6.95;;;3.60;;
2452;SDS011;1238;47.994;7.854;2022-07-29T06:30:58;7.72;;;3.92;;
2452;SDS011;1238;47.994;7.854;2022-07-29T06:33:30;7.15;;;3.80;;
2452;SDS011;1238;47.994;7.854;2022-07-29T06:38:35;6.90;;;3.83;;
2452;SDS011;1238;47.994;7.854;2022-07-29T06:41:16;4.97;;;3.50;;
2452;SDS011;1238;47.994;7.854;2022-07-29T06:46:26;5.57;;;3.80;;
2452;SDS011;1238;47.994;7.854;2022-07-29T06:48:59;8.27;;;4.28;;
2452;SDS011;1238;47.994;7.854;2022-07-29T06:51:33;7.72;;;3.83;;
2452;SDS011;1238;47.994;7.854;2022-07-29T06:56:39;8.43;;;4.47;;
2452;SDS011;1238;47.994;7.854;2022-07-29T06:59:13;7.38;;;3.80;;
2452;SDS011;1238;47.994;7.854;2022-07-29T07:01:45;7.57;;;3.83;;
2452;SDS011;1238;47.994;7.854;2022-07-29T07:04:17;5.30;;;3.63;;
2452;SDS011;1238;47.994;7.854;2022-07-29T07:06:51;5.40;;;3.58;;
2452;SDS011;1238;47.994;7.854;2022-07-29T07:09:24;7.35;;;3.70;;
2452;SDS011;1238;47.994;7.854;2022-07-29T07:12:10;6.45;;;3.90;;
2452;SDS011;1238;47.994;7.854;2022-07-29T07:14:43;10.23;;;3.80;;
2452;SDS011;1238;47.994;7.854;2022-07-29T07:19:47;6.97;;;3.92;;
2452;SDS011;1238;47.994;7.854;2022-07-29T07:22:19;5.97;;;3.72;;
2452;SDS011;1238;47.994;7.854;2022-07-29T07:24:52;5.78;;;3.72;;
2452;SDS011;1238;47.994;7.854;2022-07-29T07:27:24;5.75;;;4.05;;
2452;SDS011;1238;47.994;7.854;2022-07-29T07:29:56;5.43;;;3.30;;
2452;SDS011;1238;47.994;7.854;2022-07-29T07:32:28;6.05;;;3.42;;
2452;SDS011;1238;47.994;7.854;2022-07-29T07:37:32;8.00;;;2.92;;
2452;SDS011;1238;47.994;7.854;2022-07-29T07:40:05;5.63;;;3.33;;
2452;SDS011;1238;47.994;7.854;2022-07-29T07:42:38;4.15;;;3.03;;
2452;SDS011;1238;47.994;7.854;2022-07-29T07:45:12;10.25;;;3.65;;
2452;SDS011;1238;47.994;7.854;2022-07-29T07:47:46;10.65;;;3.63;;
2452;SDS011;1238;47.994;7.854;2022-07-29T07:52:51;6.25;;;3.53;;
2452;SDS011;1238;47.994;7.854;2022-07-29T07:55:26;6.38;;;3.75;;
2452;SDS011;1238;47.994;7.854;2022-07-29T08:00:30;6.22;;;3.40;;
2452;SDS011;1238;47.994;7.854;2022-07-29T08:03:03;6.80;;;3.50;;
2452;SDS011;1238;47.994;7.854;2022-07-29T08:05:47;7.63;;;3.70;;
2452;SDS011;1238;47.994;7.854;2022-07-29T08:08:19;6.28;;;3.60;;
2452;SDS011;1238;47.994;7.854;2022-07-29T08:10:51;5.85;;;3.78;;
2452;SDS011;1238;47.994;7.854;2022-07-29T08:15:57;6.63;;;3.38;;
2452;SDS011;1238;47.994;7.854;2022-07-29T08:18:31;6.82;;;3.70;;
2452;SDS011;1238;47.994;7.854;2022-07-29T08:23:36;6.03;;;4.03;;
2452;SDS011;1238;47.994;7.854;2022-07-29T08:26:23;5.68;;;3.33;;
2452;SDS011;1238;47.994;7.854;2022-07-29T08:31:27;5.28;;;2.92;;
2452;SDS011;1238;47.994;7.854;2022-07-29T08:33:59;5.78;;;2.90;;
2452;SDS011;1238;47.994;7.854;2022-07-29T08:36:31;7.32;;;3.25;;
2452;SDS011;1238;47.994;7.854;2022-07-29T08:39:04;10.10;;;3.50;;
2452;SDS011;1238;47.994;7.854;2022-07-29T08:41:36;5.43;;;3.38;;
2452;SDS011;1238;47.994;7.854;2022-07-29T08:44:28;5.50;;;2.97;;
2452;SDS011;1238;47.994;7.854;2022-07-29T08:47:01;5.80;;;2.83;;
2452;SDS011;1238;47.994;7.854;2022-07-29T08:49:34;6.35;;;3.00;;
2452;SDS011;1238;47.994;7.854;2022-07-29T08:52:09;5.20;;;3.13;;
2452;SDS011;1238;47.994;7.854;2022-07-29T08:54:43;6.93;;;2.78;;
2452;SDS011;1238;47.994;7.854;2022-07-29T08:57:15;5.32;;;2.67;;
2452;SDS011;1238;47.994;7.854;2022-07-29T08:59:50;5.32;;;3.00;;
2452;SDS011;1238;47.994;7.854;2022-07-29T09:02:25;5.63;;;3.00;;
2452;SDS011;1238;47.994;7.854;2022-07-29T09:05:07;5.32;;;2.95;;
2452;SDS011;1238;47.994;7.854;2022-07-29T09:07:39;6.20;;;3.15;;
2452;SDS011;1238;47.994;7.854;2022-07-29T09:10:14;7.88;;;2.50;;
2452;SDS011;1238;47.994;7.854;2022-07-29T09:12:46;6.60;;;3.30;;
2452;SDS011;1238;47.994;7.854;2022-07-29T09:15:20;5.90;;;2.67;;
2452;SDS011;1238;47.994;7.854;2022-07-29T09:17:52;4.65;;;2.53;;
2452;SDS011;1238;47.994;7.854;2022-07-29T09:20:26;6.15;;;2.78;;
2452;SDS011;1238;47.994;7.854;2022-07-29T09:23:19;12.40;;;2.88;;
2452;SDS011;1238;47.994;7.854;2022-07-29T09:25:54;4.90;;;2.42;;
2452;SDS011;1238;47.994;7.854;2022-07-29T09:30:59;7.63;;;2.47;;
2452;SDS011;1238;47.994;7.854;2022-07-29T09:36:08;9.23;;;2.50;;
2452;SDS011;1238;47.994;7.854;2022-07-29T09:38:41;5.88;;;2.38;;
2452;SDS011;1238;47.994;7.854;2022-07-29T09:41:13;4.85;;;2.20;;
2452;SDS011;1238;47.994;7.854;2022-07-29T09:43:57;6.93;;;2.70;;
2452;SDS011;1238;47.994;7.854;2022-07-29T09:46:31;5.97;;;2.30;;
2452;SDS011;1238;47.994;7.854;2022-07-29T09:49:07;8.18;;;3.00;;
2452;SDS011;1238;47.994;7.854;2022-07-29T09:51:40;4.88;;;2.20;;
2452;SDS011;1238;47.994;7.854;2022-07-29T09:54:22;7.45;;;2.15;;
2452;SDS011;1238;47.994;7.854;2022-07-29T09:56:55;3.45;;;2.15;;
2452;SDS011;1238;47.994;7.854;2022-07-29T09:59:28;4.50;;;2.38;;
2452;SDS011;1238;47.994;7.854;2022-07-29T10:02:00;10.15;;;2.65;;
2452;SDS011;1238;47.994;7.854;2022-07-29T10:04:37;4.68;;;2.17;;
2452;SDS011;1238;47.994;7.854;2022-07-29T10:07:13;11.27;;;2.60;;
2452;SDS011;1238;47.994;7.854;2022-07-29T10:09:55;8.75;;;2.50;;
2452;SDS011;1238;47.994;7.854;2022-07-29T10:12:29;4.93;;;2.20;;
2452;SDS011;1238;47.994;7.854;2022-07-29T10:15:01;7.32;;;2.47;;
2452;SDS011;1238;47.994;7.854;2022-07-29T10:17:34;5.45;;;2.40;;
2452;SDS011;1238;47.994;7.854;2022-07-29T10:20:12;6.43;;;2.33;;
2452;SDS011;1238;47.994;7.854;2022-07-29T10:22:47;7.65;;;3.50;;
2452;SDS011;1238;47.994;7.854;2022-07-29T10:25:24;5.78;;;2.40;;
2452;SDS011;1238;47.994;7.854;2022-07-29T10:27:58;6.15;;;2.40;;
2452;SDS011;1238;47.994;7.854;2022-07-29T10:30:30;3.75;;;2.38;;
2452;SDS011;1238;47.994;7.854;2022-07-29T10:35:47;7.30;;;2.40;;
2452;SDS011;1238;47.994;7.854;2022-07-29T10:39:00;7.25;;;3.72;;
2452;SDS011;1238;47.994;7.854;2022-07-29T10:44:18;5.63;;;2.65;;
2452;SDS011;1238;47.994;7.854;2022-07-29T10:46:56;8.75;;;3.00;;
2452;SDS011;1238;47.994;7.854;2022-07-29T10:49:30;6.47;;;2.53;;
2452;SDS011;1238;47.994;7.854;2022-07-29T10:52:04;6.57;;;2.63;;
2452;SDS011;1238;47.994;7.854;2022-07-29T10:54:47;4.78;;;2.35;;
2452;SDS011;1238;47.994;7.854;2022-07-29T10:57:27;6.47;;;2.67;;
2452;SDS011;1238;47.994;7.854;2022-07-29T11:00:28;4.82;;;2.53;;
2452;SDS011;1238;47.994;7.854;2022-07-29T11:03:02;4.13;;;2.65;;
2452;SDS011;1238;47.994;7.854;2022-07-29T11:05:52;8.82;;;2.60;;
2452;SDS011;1238;47.994;7.854;2022-07-29T11:08:25;5.40;;;2.50;;
2452;SDS011;1238;47.994;7.854;2022-07-29T11:13:52;5.20;;;2.75;;
2452;SDS011;1238;47.994;7.854;2022-07-29T11:16:31;5.97;;;2.80;;
2452;SDS011;1238;47.994;7.854;2022-07-29T11:19:46;5.80;;;2.33;;
2452;SDS011;1238;47.994;7.854;2022-07-29T11:22:35;3.55;;;2.38;;
2452;SDS011;1238;47.994;7.854;2022-07-29T11:25:18;6.20;;;2.60;;
2452;SDS011;1238;47.994;7.854;2022-07-29T11:28:16;8.52;;;2.70;;
2452;SDS011;1238;47.994;7.854;2022-07-29T11:30:54;6.53;;;2.33;;
2452;SDS011;1238;47.994;7.854;2022-07-29T11:33:28;7.15;;;2.67;;
2452;SDS011;1238;47.994;7.854;2022-07-29T11:36:22;7.20;;;2.55;;
2452;SDS011;1238;47.994;7.854;2022-07-29T11:39:24;7.25;;;2.88;;
2452;SDS011;1238;47.994;7.854;2022-07-29T11:45:22;4.43;;;2.33;;
2452;SDS011;1238;47.994;7.854;2022-07-29T11:48:16;7.60;;;2.47;;
2452;SDS011;1238;47.994;7.854;2022-07-29T11:51:04;6.30;;;2.65;;
2452;SDS011;1238;47.994;7.854;2022-07-29T11:53:46;5.28;;;2.97;;
2452;SDS011;1238;47.994;7.854;2022-07-29T11:56:23;3.83;;;2.50;;
2452;SDS011;1238;47.994;7.854;2022-07-29T11:59:06;4.82;;;2.50;;
2452;SDS011;1238;47.994;7.854;2022-07-29T12:01:52;3.70;;;2.40;;
2452;SDS011;1238;47.994;7.854;2022-07-29T12:04:52;4.50;;;2.70;;
2452;SDS011;1238;47.994;7.854;2022-07-29T12:07:30;5.07;;;2.75;;
2452;SDS011;1238;47.994;7.854;2022-07-29T12:10:07;5.80;;;2.72;;
2452;SDS011;1238;47.994;7.854;2022-07-29T12:12:53;7.13;;;2.90;;
2452;SDS011;1238;47.994;7.854;2022-07-29T12:15:25;5.18;;;2.90;;
2452;SDS011;1238;47.994;7.854;2022-07-29T12:18:17;4.88;;;3.00;;
2452;SDS011;1238;47.994;7.854;2022-07-29T12:21:01;4.90;;;2.53;;
2452;SDS011;1238;47.994;7.854;2022-07-29T12:23:35;4.32;;;2.70;;
2452;SDS011;1238;47.994;7.854;2022-07-29T12:26:08;5.78;;;2.30;;
2452;SDS011;1238;47.994;7.854;2022-07-29T12:28:41;4.50;;;2.75;;
2452;SDS011;1238;47.994;7.854;2022-07-29T12:31:17;4.88;;;2.95;;
2452;SDS011;1238;47.994;7.854;2022-07-29T12:34:13;4.40;;;2.83;;
2452;SDS011;1238;47.994;7.854;2022-07-29T12:36:47;7.88;;;2.85;;
2452;SDS011;1238;47.994;7.854;2022-07-29T12:39:20;7.03;;;2.67;;
2452;SDS011;1238;47.994;7.854;2022-07-29T12:41:53;7.38;;;3.03;;
2452;SDS011;1238;47.994;7.854;2022-07-29T12:44:45;5.00;;;2.60;;
2452;SDS011;1238;47.994;7.854;2022-07-29T12:47:22;5.57;;;2.80;;
2452;SDS011;1238;47.994;7.854;2022-07-29T12:50:13;5.68;;;2.60;;
2452;SDS011;1238;47.994;7.854;2022-07-29T12:52:54;9.15;;;2.88;;
2452;SDS011;1238;47.994;7.854;2022-07-29T12:55:42;3.17;;;2.10;;
2452;SDS011;1238;47.994;7.854;2022-07-29T13:01:12;3.22;;;2.22;;
2452;SDS011;1238;47.994;7.854;2022-07-29T13:03:57;3.90;;;2.30;;
2452;SDS011;1238;47.994;7.854;2022-07-29T13:09:20;4.55;;;2.47;;
2452;SDS011;1238;47.994;7.854;2022-07-29T13:11:55;5.07;;;2.40;;
2452;SDS011;1238;47.994;7.854;2022-07-29T13:17:10;5.07;;;2.58;;
2452;SDS011;1238;47.994;7.854;2022-07-29T13:19:47;7.70;;;2.37;;
2452;SDS011;1238;47.994;7.854;2022-07-29T13:22:22;4.55;;;2.25;;
2452;SDS011;1238;47.994;7.854;2022-07-29T13:24:56;4.68;;;2.25;;
2452;SDS011;1238;47.994;7.854;2022-07-29T13:27:30;6.07;;;2.05;;
2452;SDS011;1238;47.994;7.854;2022-07-29T13:30:05;5.75;;;2.30;;
2452;SDS011;1238;47.994;7.854;2022-07-29T13:32:39;4.57;;;2.22;;
2452;SDS011;1238;47.994;7.854;2022-07-29T13:35:11;3.83;;;2.10;;
2452;SDS011;1238;47.994;7.854;2022-07-29T13:37:45;4.05;;;1.80;;
2452;SDS011;1238;47.994;7.854;2022-07-29T13:40:17;3.53;;;2.10;;
2452;SDS011;1238;47.994;7.854;2022-07-29T13:42:50;4.00;;;2.50;;
2452;SDS011;1238;47.994;7.854;2022-07-29T13:45:22;7.32;;;1.90;;
2452;SDS011;1238;47.994;7.854;2022-07-29T13:47:59;4.25;;;2.13;;
2452;SDS011;1238;47.994;7.854;2022-07-29T13:50:31;5.80;;;2.10;;
2452;SDS011;1238;47.994;7.854;2022-07-29T13:53:04;6.90;;;1.92;;
2452;SDS011;1238;47.994;7.854;2022-07-29T13:55:37;6.05;;;1.80;;
2452;SDS011;1238;47.994;7.854;2022-07-29T13:58:09;5.55;;;2.20;;
2452;SDS011;1238;47.994;7.854;2022-07-29T14:00:41;3.75;;;2.10;;
2452;SDS011;1238;47.994;7.854;2022-07-29T14:03:14;5.65;;;2.10;;
2452;SDS011;1238;47.994;7.854;2022-07-29T14:05:46;5.22;;;2.20;;
2452;SDS011;1238;47.994;7.854;2022-07-29T14:08:18;5.18;;;2.22;;
2452;SDS011;1238;47.994;7.854;2022-07-29T14:10:51;5.78;;;2.35;;
2452;SDS011;1238;47.994;7.854;2022-07-29T14:13:23;4.32;;;2.10;;
2452;SDS011;1238;47.994;7.854;2022-07-29T14:15:56;7.75;;;2.35;;
2452;SDS011;1238;47.994;7.854;2022-07-29T14:18:29;7.35;;;2.33;;
2452;SDS011;1238;47.994;7.854;2022-07-29T14:21:01;4.75;;;1.90;;
2452;SDS011;1238;47.994;7.854;2022-07-29T14:23:34;3.13;;;1.80;;
2452;SDS011;1238;47.994;7.854;2022-07-29T14:26:07;5.05;;;2.28;;
2452;SDS011;1238;47.994;7.854;2022-07-29T14:28:46;6.25;;;2.10;;
2452;SDS011;1238;47.994;7.854;2022-07-29T14:36:23;4.05;;;1.83;;
2452;SDS011;1238;47.994;7.854;2022-07-29T14:38:55;3.17;;;1.90;;
2452;SDS011;1238;47.994;7.854;2022-07-29T14:41:28;4.18;;;2.13;;
2452;SDS011;1238;47.994;7.854;2022-07-29T14:44:00;7.57;;;2.05;;
2452;SDS011;1238;47.994;7.854;2022-07-29T14:46:33;3.63;;;1.60;;
2452;SDS011;1238;47.994;7.854;2022-07-29T14:49:05;4.88;;;2.08;;
2452;SDS011;1238;47.994;7.854;2022-07-29T14:51:40;3.65;;;2.00;;
2452;SDS011;1238;47.994;7.854;2022-07-29T14:54:12;2.58;;;1.77;;
2452;SDS011;1238;47.994;7.854;2022-07-29T14:56:44;5.03;;;2.00;;
2452;SDS011;1238;47.994;7.854;2022-07-29T14:59:17;7.57;;;2.10;;
2452;SDS011;1238;47.994;7.854;2022-07-29T15:01:50;2.92;;;1.60;;
2452;SDS011;1238;47.994;7.854;2022-07-29T15:04:23;6.35;;;1.80;;
2452;SDS011;1238;47.994;7.854;2022-07-29T15:06:55;2.90;;;1.70;;
2452;SDS011;1238;47.994;7.854;2022-07-29T15:09:29;5.55;;;1.80;;
2452;SDS011;1238;47.994;7.854;2022-07-29T15:12:00;5.40;;;1.80;;
2452;SDS011;1238;47.994;7.854;2022-07-29T15:14:34;3.15;;;1.58;;
2452;SDS011;1238;47.994;7.854;2022-07-29T15:17:06;2.88;;;1.50;;
2452;SDS011;1238;47.994;7.854;2022-07-29T15:19:39;3.00;;;1.55;;
2452;SDS011;1238;47.994;7.854;2022-07-29T15:22:15;2.72;;;1.75;;
2452;SDS011;1238;47.994;7.854;2022-07-29T15:24:48;2.85;;;1.70;;
2452;SDS011;1238;47.994;7.854;2022-07-29T15:27:21;2.15;;;1.40;;
2452;SDS011;1238;47.994;7.854;2022-07-29T15:29:53;2.75;;;1.50;;
2452;SDS011;1238;47.994;7.854;2022-07-29T15:32:26;4.25;;;1.60;;
2452;SDS011;1238;47.994;7.854;2022-07-29T15:34:58;2.60;;;1.50;;
2452;SDS011;1238;47.994;7.854;2022-07-29T15:37:30;3.08;;;1.50;;
2452;SDS011;1238;47.994;7.854;2022-07-29T15:40:20;4.63;;;1.60;;
2452;SDS011;1238;47.994;7.854;2022-07-29T15:42:53;2.92;;;1.42;;
2452;SDS011;1238;47.994;7.854;2022-07-29T15:45:25;4.35;;;1.30;;
2452;SDS011;1238;47.994;7.854;2022-07-29T15:48:04;4.63;;;1.50;;
2452;SDS011;1238;47.994;7.854;2022-07-29T15:50:38;3.08;;;1.33;;
2452;SDS011;1238;47.994;7.854;2022-07-29T15:53:10;3.08;;;1.50;;
2452;SDS011;1238;47.994;7.854;2022-07-29T15:55:42;2.63;;;1.50;;
2452;SDS011;1238;47.994;7.854;2022-07-29T15:58:15;2.55;;;1.50;;
2452;SDS011;1238;47.994;7.854;2022-07-29T16:00:47;4.72;;;1.60;;
2452;SDS011;1238;47.994;7.854;2022-07-29T16:05:53;2.70;;;1.42;;
2452;SDS011;1238;47.994;7.854;2022-07-29T16:08:25;4.38;;;1.45;;
2452;SDS011;1238;47.994;7.854;2022-07-29T16:10:57;3.10;;;1.58;;
2452;SDS011;1238;47.994;7.854;2022-07-29T16:13:30;5.53;;;1.40;;
2452;SDS011;1238;47.994;7.854;2022-07-29T16:16:02;2.50;;;1.40;;
2452;SDS011;1238;47.994;7.854;2022-07-29T16:18:34;2.05;;;1.33;;
2452;SDS011;1238;47.994;7.854;2022-07-29T16:21:06;2.50;;;1.40;;
2452;SDS011;1238;47.994;7.854;2022-07-29T16:23:39;3.13;;;1.40;;
2452;SDS011;1238;47.994;7.854;2022-07-29T16:26:12;4.75;;;1.70;;
2452;SDS011;1238;47.994;7.854;2022-07-29T16:28:43;2.38;;;1.50;;
2452;SDS011;1238;47.994;7.854;2022-07-29T16:31:17;2.78;;;1.45;;
2452;SDS011;1238;47.994;7.854;2022-07-29T16:33:55;2.05;;;1.20;;
2452;SDS011;1238;47.994;7.854;2022-07-29T16:36:28;4.90;;;1.38;;
2452;SDS011;1238;47.994;7.854;2022-07-29T16:39:00;4.00;;;1.60;;
2452;SDS011;1238;47.994;7.854;2022-07-29T16:41:32;5.60;;;1.90;;
2452;SDS011;1238;47.994;7.854;2022-07-29T16:44:04;3.60;;;1.40;;
2452;SDS011;1238;47.994;7.854;2022-07-29T16:46:37;2.60;;;1.40;;
2452;SDS011;1238;47.994;7.854;2022-07-29T16:49:11;2.10;;;1.30;;
2452;SDS011;1238;47.994;7.854;2022-07-29T16:51:50;2.67;;;1.45;;
2452;SDS011;1238;47.994;7.854;2022-07-29T16:54:22;5.38;;;1.50;;
2452;SDS011;1238;47.994;7.854;2022-07-29T16:56:55;3.33;;;1.25;;
2452;SDS011;1238;47.994;7.854;2022-07-29T16:59:28;2.80;;;1.50;;
2452;SDS011;1238;47.994;7.854;2022-07-29T17:02:00;1.85;;;1.13;;
2452;SDS011;1238;47.994;7.854;2022-07-29T17:04:33;3.65;;;1.40;;
2452;SDS011;1238;47.994;7.854;2022-07-29T17:07:05;3.08;;;1.60;;
2452;SDS011;1238;47.994;7.854;2022-07-29T17:09:39;3.72;;;1.45;;
2452;SDS011;1238;47.994;7.854;2022-07-29T17:12:11;4.45;;;1.40;;
2452;SDS011;1238;47.994;7.854;2022-07-29T17:14:44;6.15;;;1.40;;
2452;SDS011;1238;47.994;7.854;2022-07-29T17:17:17;2.13;;;1.25;;
2452;SDS011;1238;47.994;7.854;2022-07-29T17:20:09;3.22;;;1.27;;
2452;SDS011;1238;47.994;7.854;2022-07-29T17:22:47;2.80;;;1.50;;
2452;SDS011;1238;47.994;7.854;2022-07-29T17:25:20;5.25;;;1.42;;
2452;SDS011;1238;47.994;7.854;2022-07-29T17:27:52;5.57;;;1.10;;
2452;SDS011;1238;47.994;7.854;2022-07-29T17:30:31;2.22;;;1.23;;
2452;SDS011;1238;47.994;7.854;2022-07-29T17:33:04;3.20;;;1.10;;
2452;SDS011;1238;47.994;7.854;2022-07-29T17:35:36;2.45;;;1.40;;
2452;SDS011;1238;47.994;7.854;2022-07-29T17:38:27;3.75;;;1.52;;
2452;SDS011;1238;47.994;7.854;2022-07-29T17:40:59;2.72;;;1.35;;
2452;SDS011;1238;47.994;7.854;2022-07-29T17:43:31;3.60;;;1.58;;
2452;SDS011;1238;47.994;7.854;2022-07-29T17:46:03;4.03;;;1.40;;
2452;SDS011;1238;47.994;7.854;2022-07-29T17:48:35;3.67;;;1.52;;
2452;SDS011;1238;47.994;7.854;2022-07-29T17:51:08;2.92;;;1.58;;
2452;SDS011;1238;47.994;7.854;2022-07-29T17:53:41;1.52;;;1.15;;
2452;SDS011;1238;47.994;7.854;2022-07-29T17:56:13;2.60;;;1.58;;